createdAt,value
2023-02-15T00:01:07.155Z,69.24
2023-02-15T00:03:08.941Z,69.93
2023-02-15T00:05:10.470Z,69.61
2023-02-15T00:07:13.151Z,70.27
2023-02-15T00:09:14.716Z,70.02
2023-02-15T00:11:18.796Z,69.65
2023-02-15T00:13:20.638Z,70.19
2023-02-15T00:15:23.742Z,70.16
2023-02-15T00:17:28.642Z,70.17
2023-02-15T00:19:30.204Z,69.82
2023-02-15T00:21:33.353Z,70.58
2023-02-15T00:23:35.447Z,70.45
2023-02-15T00:25:37.303Z,70.41
2023-02-15T00:27:38.860Z,70.25
2023-02-15T00:29:40.400Z,70.92
2023-02-15T00:31:43.536Z,70.80
2023-02-15T00:33:45.099Z,70.78
2023-02-15T00:35:47.153Z,70.74
2023-02-15T00:37:48.708Z,70.99
2023-02-15T00:39:50.293Z,71.61
2023-02-15T00:41:52.149Z,70.88
2023-02-15T00:43:54.069Z,71.44
2023-02-15T00:45:56.258Z,71.91
2023-02-15T00:47:59.258Z,71.55
2023-02-15T00:50:00.821Z,71.10
2023-02-15T00:52:02.667Z,71.80
2023-02-15T00:54:04.486Z,71.95
2023-02-15T00:56:06.165Z,71.47
2023-02-15T00:58:08.846Z,71.24
2023-02-15T01:00:11.832Z,71.89
2023-02-15T01:02:13.478Z,71.50
2023-02-15T01:04:16.519Z,71.11
2023-02-15T01:06:18.750Z,71.80
2023-02-15T01:08:20.382Z,71.86
2023-02-15T01:10:22.309Z,71.77
2023-02-15T01:12:24.240Z,71.65
2023-02-15T01:14:25.867Z,71.26
2023-02-15T01:16:29.656Z,72.12
2023-02-15T01:18:32.573Z,72.11
2023-02-15T01:20:38.393Z,71.72
2023-02-15T01:22:39.951Z,71.33
2023-02-15T01:24:41.507Z,71.57
2023-02-15T01:26:43.126Z,72.08
2023-02-15T01:28:45.144Z,72.26
2023-02-15T01:30:46.967Z,71.77
2023-02-15T01:32:48.869Z,71.49
2023-02-15T01:34:50.470Z,71.94
2023-02-15T01:36:53.505Z,71.66
2023-02-15T01:38:55.084Z,71.54
2023-02-15T01:40:59.235Z,71.79
2023-02-15T01:43:01.329Z,71.69
2023-02-15T01:45:05.382Z,71.76
2023-02-15T01:47:11.046Z,72.09
2023-02-15T01:49:16.370Z,72.01
2023-02-15T01:51:25.264Z,71.84
2023-02-15T01:53:35.047Z,72.08
2023-02-15T01:55:41.300Z,71.48
2023-02-15T01:57:44.851Z,71.71
2023-02-15T01:59:51.909Z,72.03
2023-02-15T02:01:58.779Z,72.15
2023-02-15T02:04:08.275Z,72.30
2023-02-15T02:06:10.490Z,71.74
2023-02-15T02:08:12.277Z,72.42
2023-02-15T02:10:17.596Z,71.85
2023-02-15T02:12:21.859Z,72.61
2023-02-15T02:14:25.155Z,72.69
2023-02-15T02:16:35.576Z,72.13
2023-02-15T02:18:47.037Z,72.60
2023-02-15T02:21:27.011Z,71.29
2023-02-15T02:23:42.304Z,72.14
2023-02-15T02:26:25.508Z,71.64
2023-02-15T02:28:58.945Z,71.94
2023-02-15T02:31:25.674Z,71.45
2023-02-15T02:33:53.760Z,71.68
2023-02-15T02:36:04.619Z,72.54
2023-02-15T02:38:13.033Z,72.14
2023-02-15T02:40:23.833Z,72.14
2023-02-15T02:42:34.814Z,72.20
2023-02-15T02:44:43.128Z,72.97
2023-02-15T02:46:51.904Z,72.72
2023-02-15T02:48:56.126Z,73.07
2023-02-15T02:50:57.735Z,72.78
2023-02-15T02:53:00.271Z,72.79
2023-02-15T02:55:04.041Z,72.69
2023-02-15T02:57:09.373Z,72.61
2023-02-15T02:59:17.963Z,72.71
2023-02-15T03:01:25.733Z,73.20
2023-02-15T03:03:33.636Z,72.92
2023-02-15T03:05:42.534Z,73.04
2023-02-15T03:07:50.840Z,73.41
2023-02-15T03:09:54.141Z,73.03
2023-02-15T03:11:55.889Z,72.99
2023-02-15T03:13:58.713Z,73.00
2023-02-15T03:16:03.032Z,72.75
2023-02-15T03:18:05.761Z,73.44
2023-02-15T03:20:09.533Z,72.96
2023-02-15T03:22:19.602Z,73.09
2023-02-15T03:24:26.257Z,72.90
2023-02-15T03:26:31.336Z,72.78
2023-02-15T03:28:37.367Z,73.29
2023-02-15T03:30:43.826Z,72.96
2023-02-15T03:32:47.410Z,73.20
2023-02-15T03:34:49.280Z,72.52
2023-02-15T03:36:56.282Z,72.67
2023-02-15T03:39:08.856Z,72.90
2023-02-15T03:41:12.425Z,73.07
2023-02-15T03:43:20.918Z,73.11
2023-02-15T03:45:28.585Z,72.51
2023-02-15T03:47:35.765Z,72.69
2023-02-15T03:49:43.815Z,72.80
2023-02-15T03:51:49.501Z,72.97
2023-02-15T03:53:53.661Z,73.57
2023-02-15T03:55:56.813Z,72.68
2023-02-15T03:57:58.458Z,73.01
2023-02-15T04:00:01.560Z,73.42
2023-02-15T04:02:17.859Z,73.14
2023-02-15T04:04:25.580Z,72.74
2023-02-15T04:06:27.618Z,73.46
2023-02-15T04:08:29.323Z,73.51
2023-02-15T04:10:30.939Z,73.10
2023-02-15T04:12:34.220Z,73.52
2023-02-15T04:14:36.297Z,73.17
2023-02-15T04:16:37.824Z,72.93
2023-02-15T04:18:41.668Z,73.72
2023-02-15T04:20:44.934Z,72.67
2023-02-15T04:22:46.512Z,72.88
2023-02-15T04:24:48.082Z,73.21
2023-02-15T04:26:49.657Z,73.53
2023-02-15T04:28:52.582Z,73.46
2023-02-15T04:30:54.135Z,73.45
2023-02-15T04:32:56.264Z,73.69
2023-02-15T04:34:57.953Z,73.51
2023-02-15T04:36:59.570Z,73.78
2023-02-15T04:39:01.788Z,73.71
2023-02-15T04:41:03.347Z,73.52
2023-02-15T04:43:05.020Z,74.06
2023-02-15T04:45:08.972Z,74.05
2023-02-15T04:47:11.124Z,73.93
2023-02-15T04:49:12.982Z,73.79
2023-02-15T04:51:14.687Z,73.64
2023-02-15T04:53:16.286Z,73.96
2023-02-15T04:55:17.845Z,74.05
2023-02-15T04:57:19.645Z,74.07
2023-02-15T04:59:21.994Z,74.28
2023-02-15T05:01:24.959Z,74.24
2023-02-15T05:03:26.652Z,74.54
2023-02-15T05:05:28.564Z,74.41
2023-02-15T05:07:30.375Z,74.42
2023-02-15T05:09:31.954Z,74.31
2023-02-15T05:11:33.516Z,74.52
2023-02-15T05:13:35.053Z,74.40
2023-02-15T05:15:36.809Z,74.16
2023-02-15T05:17:40.461Z,73.76
2023-02-15T05:19:42.041Z,74.52
2023-02-15T05:21:43.749Z,74.31
2023-02-15T05:23:45.664Z,74.78
2023-02-15T05:25:48.992Z,74.37
2023-02-15T05:27:50.705Z,74.46
2023-02-15T05:29:52.632Z,74.65
2023-02-15T05:31:54.718Z,74.55
2023-02-15T05:33:57.776Z,74.27
2023-02-15T05:36:00.354Z,74.18
2023-02-15T05:38:03.688Z,74.14
2023-02-15T05:40:06.355Z,74.70
2023-02-15T05:42:07.915Z,74.10
2023-02-15T05:44:09.743Z,74.24
2023-02-15T05:46:12.819Z,74.58
2023-02-15T05:48:14.837Z,74.80
2023-02-15T05:50:18.223Z,74.88
2023-02-15T05:52:19.847Z,74.42
2023-02-15T05:54:21.394Z,74.86
2023-02-15T05:56:23.017Z,75.13
2023-02-15T05:58:24.704Z,74.95
2023-02-15T06:00:26.359Z,74.62
2023-02-15T06:02:27.966Z,75.44
2023-02-15T06:04:30.024Z,75.00
2023-02-15T06:06:33.570Z,75.30
2023-02-15T06:08:36.877Z,75.73
2023-02-15T06:10:38.438Z,75.52
2023-02-15T06:12:40.289Z,75.41
2023-02-15T06:14:41.938Z,75.71
2023-02-15T06:16:43.496Z,75.41
2023-02-15T06:18:45.081Z,75.47
2023-02-15T06:20:47.070Z,75.54
2023-02-15T06:22:50.287Z,75.46
2023-02-15T06:24:51.837Z,75.22
2023-02-15T06:26:53.442Z,75.38
2023-02-15T06:28:54.996Z,75.34
2023-02-15T06:30:58.169Z,75.10
2023-02-15T06:32:59.930Z,75.50
2023-02-15T06:35:01.679Z,75.55
2023-02-15T06:37:03.239Z,75.25
2023-02-15T06:39:06.327Z,75.48
2023-02-15T06:41:07.998Z,75.07
2023-02-15T06:43:09.543Z,75.03
2023-02-15T06:45:12.234Z,75.01
2023-02-15T06:47:14.072Z,75.63
2023-02-15T06:49:15.645Z,75.57
2023-02-15T06:51:17.202Z,76.02
2023-02-15T06:53:19.055Z,75.47
2023-02-15T06:55:22.196Z,75.27
2023-02-15T06:57:23.743Z,76.15
2023-02-15T06:59:26.129Z,75.53
2023-02-15T07:01:27.794Z,75.22
2023-02-15T07:03:29.682Z,75.66
2023-02-15T07:05:34.859Z,75.82
2023-02-15T07:07:36.476Z,75.91
2023-02-15T07:09:38.282Z,75.77
2023-02-15T07:11:41.205Z,75.90
2023-02-15T07:13:42.755Z,76.41
2023-02-15T07:15:44.479Z,76.05
2023-02-15T07:17:46.024Z,76.64
2023-02-15T07:19:47.604Z,76.17
2023-02-15T07:21:49.298Z,76.82
2023-02-15T07:23:51.245Z,76.80
2023-02-15T07:25:57.804Z,76.41
2023-02-15T07:28:03.108Z,76.48
2023-02-15T07:30:06.366Z,76.87
2023-02-15T07:32:08.291Z,76.90
2023-02-15T07:34:10.096Z,77.37
2023-02-15T07:36:12.008Z,76.99
2023-02-15T07:38:13.890Z,76.89
2023-02-15T07:40:17.666Z,76.43
2023-02-15T07:42:19.552Z,76.92
2023-02-15T07:44:22.508Z,76.94
2023-02-15T07:46:24.220Z,77.28
2023-02-15T07:48:25.907Z,77.03
2023-02-15T07:50:27.673Z,77.02
2023-02-15T07:52:29.214Z,77.59
2023-02-15T07:54:31.474Z,77.47
2023-02-15T07:56:34.107Z,77.68
2023-02-15T07:58:36.525Z,77.12
2023-02-15T08:00:39.739Z,77.38
2023-02-15T08:02:41.719Z,77.40
2023-02-15T08:04:43.425Z,77.82
2023-02-15T08:06:44.934Z,77.33
2023-02-15T08:08:46.544Z,77.27
2023-02-15T08:10:48.373Z,76.33
2023-02-15T08:12:49.960Z,77.02
2023-02-15T08:14:51.582Z,77.67
2023-02-15T08:16:56.075Z,76.99
2023-02-15T08:18:59.165Z,77.81
2023-02-15T08:21:01.504Z,77.79
2023-02-15T08:23:03.097Z,78.17
2023-02-15T08:25:05.209Z,78.17
2023-02-15T08:27:08.635Z,78.15
2023-02-15T08:29:10.685Z,77.61
2023-02-15T08:31:13.967Z,77.80
2023-02-15T08:33:17.287Z,77.63
2023-02-15T08:35:18.939Z,77.58
2023-02-15T08:37:20.662Z,77.47
2023-02-15T08:39:22.447Z,77.55
2023-02-15T08:41:26.451Z,77.33
2023-02-15T08:43:30.263Z,78.09
2023-02-15T08:45:31.878Z,77.74
2023-02-15T08:47:33.470Z,77.40
2023-02-15T08:49:36.543Z,77.75
2023-02-15T08:51:39.364Z,77.73
2023-02-15T08:53:42.298Z,77.90
2023-02-15T08:55:44.078Z,78.42
2023-02-15T08:57:48.741Z,77.54
2023-02-15T08:59:50.412Z,78.12
2023-02-15T09:01:53.037Z,77.74
2023-02-15T09:03:57.590Z,78.25
2023-02-15T09:06:02.397Z,78.23
2023-02-15T09:08:04.271Z,78.11
2023-02-15T09:10:07.803Z,78.22
2023-02-15T09:12:09.641Z,77.69
2023-02-15T09:14:14.262Z,77.32
2023-02-15T09:16:15.942Z,77.90
2023-02-15T09:18:17.582Z,77.38
2023-02-15T09:20:19.258Z,78.08
2023-02-15T09:22:22.235Z,78.09
2023-02-15T09:24:23.794Z,77.53
2023-02-15T09:26:25.788Z,77.92
2023-02-15T09:28:27.401Z,77.68
2023-02-15T09:30:29.293Z,77.72
2023-02-15T09:32:31.369Z,77.41
2023-02-15T09:34:35.033Z,77.43
2023-02-15T09:36:39.601Z,77.18
2023-02-15T09:38:42.761Z,76.83
2023-02-15T09:40:56.550Z,77.05
2023-02-15T09:43:13.701Z,77.49
2023-02-15T09:45:27.370Z,77.08
2023-02-15T09:47:55.976Z,76.97
2023-02-15T09:50:07.217Z,77.60
2023-02-15T09:52:28.815Z,77.04
2023-02-15T09:54:50.069Z,76.52
2023-02-15T09:56:56.650Z,77.09
2023-02-15T09:59:10.087Z,76.89
2023-02-15T10:01:20.142Z,76.81
2023-02-15T10:03:35.903Z,76.71
2023-02-15T10:05:49.122Z,75.83
2023-02-15T10:08:14.397Z,76.06
2023-02-15T10:10:26.412Z,76.55
2023-02-15T10:12:42.436Z,75.89
2023-02-15T10:15:01.517Z,76.13
2023-02-15T10:17:13.740Z,76.38
2023-02-15T10:19:26.237Z,76.01
2023-02-15T10:21:44.900Z,75.23
2023-02-15T10:24:05.980Z,75.64
2023-02-15T10:26:17.601Z,75.73
2023-02-15T10:28:21.798Z,75.15
2023-02-15T10:30:34.516Z,75.71
2023-02-15T10:32:43.268Z,75.29
2023-02-15T10:34:51.759Z,75.25
2023-02-15T10:37:11.722Z,75.19
2023-02-15T10:39:24.299Z,75.28
2023-02-15T10:41:39.044Z,75.61
2023-02-15T10:44:04.063Z,75.35
2023-02-15T10:46:19.152Z,74.85
2023-02-15T10:48:40.785Z,75.06
2023-02-15T10:50:50.369Z,74.90
2023-02-15T10:53:15.146Z,75.08
2023-02-15T10:55:24.619Z,75.00
2023-02-15T10:57:40.673Z,74.92
2023-02-15T10:59:57.860Z,75.17
2023-02-15T11:02:05.582Z,75.13
2023-02-15T11:04:33.532Z,74.99
2023-02-15T11:06:39.021Z,74.66
2023-02-15T11:08:45.432Z,74.94
2023-02-15T11:10:52.729Z,74.80
2023-02-15T11:12:58.142Z,74.50
2023-02-15T11:15:05.173Z,74.84
2023-02-15T11:17:11.439Z,74.26
2023-02-15T11:19:18.424Z,74.02
2023-02-15T11:21:23.745Z,74.49
2023-02-15T11:23:27.558Z,74.21
2023-02-15T11:25:33.007Z,74.04
2023-02-15T11:27:35.183Z,73.64
2023-02-15T11:29:42.303Z,73.92
2023-02-15T11:31:46.421Z,74.17
2023-02-15T11:33:52.871Z,73.90
2023-02-15T11:36:00.419Z,73.81
2023-02-15T11:38:07.320Z,73.42
2023-02-15T11:40:21.580Z,73.33
2023-02-15T11:42:26.282Z,73.59
2023-02-15T11:44:34.420Z,73.58
2023-02-15T11:46:38.330Z,73.70
2023-02-15T11:48:40.601Z,73.26
2023-02-15T11:50:43.692Z,73.05
2023-02-15T11:52:45.700Z,73.00
2023-02-15T11:54:52.382Z,72.73
2023-02-15T11:56:55.580Z,72.40
2023-02-15T11:59:00.801Z,72.03
2023-02-15T12:01:10.815Z,72.02
2023-02-15T12:03:20.942Z,72.37
2023-02-15T12:05:26.046Z,71.64
2023-02-15T12:07:32.801Z,71.46
2023-02-15T12:09:39.778Z,71.57
2023-02-15T12:11:42.361Z,71.39
2023-02-15T12:13:58.425Z,71.92
2023-02-15T12:16:08.350Z,71.79
2023-02-15T12:18:22.326Z,71.94
2023-02-15T12:20:30.416Z,71.66
2023-02-15T12:22:35.463Z,71.02
2023-02-15T12:24:44.686Z,71.72
2023-02-15T12:26:58.465Z,71.42
2023-02-15T12:29:03.223Z,71.51
2023-02-15T12:31:11.220Z,72.15
2023-02-15T12:33:18.108Z,71.84
2023-02-15T12:35:29.912Z,72.21
2023-02-15T12:37:32.796Z,71.52
2023-02-15T12:39:34.373Z,71.63
2023-02-15T12:41:38.421Z,71.59
2023-02-15T12:43:40.202Z,71.38
2023-02-15T12:45:42.046Z,71.02
2023-02-15T12:47:43.666Z,71.46
2023-02-15T12:50:04.600Z,71.16
2023-02-15T12:52:26.137Z,71.56
2023-02-15T12:54:39.999Z,71.30
2023-02-15T12:56:41.544Z,71.34
2023-02-15T12:58:43.682Z,71.40
2023-02-15T13:00:45.719Z,70.95
2023-02-15T13:02:49.628Z,70.95
2023-02-15T13:04:52.355Z,70.84
2023-02-15T13:06:57.229Z,71.10
2023-02-15T13:09:09.350Z,71.19
2023-02-15T13:11:12.855Z,70.94
2023-02-15T13:13:21.236Z,71.16
2023-02-15T13:15:29.473Z,71.37
2023-02-15T13:17:33.605Z,71.42
2023-02-15T13:19:41.083Z,71.02
2023-02-15T13:21:45.843Z,71.07
2023-02-15T13:23:51.933Z,71.06
2023-02-15T13:25:57.588Z,70.48
2023-02-15T13:28:03.726Z,71.27
2023-02-15T13:30:17.885Z,71.01
2023-02-15T13:32:29.422Z,71.17
2023-02-15T13:34:34.603Z,71.23
2023-02-15T13:36:45.508Z,70.88
2023-02-15T13:38:54.576Z,70.96
2023-02-15T13:41:04.697Z,70.79
2023-02-15T13:43:21.826Z,70.93
2023-02-15T13:45:41.272Z,71.39
2023-02-15T13:47:50.442Z,70.72
2023-02-15T13:50:11.822Z,71.01
2023-02-15T13:52:20.917Z,70.54
2023-02-15T13:54:37.913Z,70.63
2023-02-15T13:56:53.046Z,70.22
2023-02-15T13:59:16.646Z,70.29
2023-02-15T14:01:27.605Z,70.53
2023-02-15T14:04:00.225Z,70.77
2023-02-15T14:06:16.235Z,70.84
2023-02-15T14:08:27.359Z,71.04
2023-02-15T14:10:39.835Z,70.74
2023-02-15T14:13:03.826Z,70.93
2023-02-15T14:15:33.042Z,70.53
2023-02-15T14:17:48.736Z,70.67
2023-02-15T14:19:55.250Z,70.14
2023-02-15T14:22:01.606Z,70.68
2023-02-15T14:24:18.427Z,70.34
2023-02-15T14:26:26.745Z,70.08
2023-02-15T14:28:38.932Z,70.20
2023-02-15T14:30:45.507Z,70.05
2023-02-15T14:32:51.676Z,69.52
2023-02-15T14:34:55.764Z,69.57
2023-02-15T14:36:58.711Z,69.86
2023-02-15T14:39:20.144Z,69.77
2023-02-15T14:41:28.754Z,69.15
2023-02-15T14:43:43.406Z,69.63
2023-02-15T14:45:50.764Z,69.27
2023-02-15T14:48:03.794Z,69.04
2023-02-15T14:50:54.025Z,69.29
2023-02-15T14:53:18.399Z,69.96
2023-02-15T14:55:36.847Z,69.68
2023-02-15T14:57:38.521Z,69.49
2023-02-15T14:59:46.297Z,69.77
2023-02-15T15:01:58.402Z,69.74
2023-02-15T15:04:04.684Z,69.30
2023-02-15T15:06:07.036Z,68.89
2023-02-15T15:08:26.885Z,69.46
2023-02-15T15:10:39.381Z,69.58
2023-02-15T15:12:41.469Z,68.89
2023-02-15T15:14:45.343Z,68.78
2023-02-15T15:16:50.433Z,69.27
2023-02-15T15:18:52.677Z,69.06
2023-02-15T15:20:54.433Z,68.66
2023-02-15T15:23:40.836Z,69.83
2023-02-15T15:25:44.586Z,68.97
2023-02-15T15:27:50.365Z,68.98
2023-02-15T15:29:53.680Z,69.04
2023-02-15T15:32:00.723Z,69.25
2023-02-15T15:34:19.793Z,69.11
2023-02-15T15:37:02.286Z,69.13
2023-02-15T15:39:21.878Z,69.60
2023-02-15T15:41:39.452Z,69.72
2023-02-15T15:44:08.087Z,69.21
2023-02-15T15:46:34.127Z,69.70
2023-02-15T15:48:37.726Z,68.89
2023-02-15T15:50:41.764Z,68.88
2023-02-15T15:52:48.601Z,69.34
2023-02-15T15:54:55.907Z,69.21
2023-02-15T15:57:03.088Z,69.24
2023-02-15T15:59:08.481Z,69.39
2023-02-15T16:01:12.266Z,69.33
2023-02-15T16:03:17.681Z,69.92
2023-02-15T16:05:19.576Z,69.37
2023-02-15T16:07:27.575Z,69.15
2023-02-15T16:09:29.326Z,68.73
2023-02-15T16:11:32.315Z,68.81
2023-02-15T16:13:34.782Z,69.70
2023-02-15T16:15:44.641Z,69.25
2023-02-15T16:17:50.623Z,69.89
2023-02-15T16:19:57.266Z,70.21
2023-02-15T16:22:01.509Z,69.30
2023-02-15T16:24:23.223Z,69.54
2023-02-15T16:26:49.998Z,70.01
2023-02-15T16:28:52.560Z,70.01
2023-02-15T16:31:07.568Z,69.73
2023-02-15T16:33:11.436Z,70.21
2023-02-15T16:35:17.572Z,70.51
2023-02-15T16:37:20.860Z,70.18
2023-02-15T16:39:22.375Z,69.60
2023-02-15T16:41:27.405Z,70.22
2023-02-15T16:43:32.854Z,70.42
2023-02-15T16:45:35.312Z,70.25
2023-02-15T16:47:42.466Z,70.65
2023-02-15T16:49:47.461Z,70.04
2023-02-15T16:51:58.710Z,70.20
2023-02-15T16:54:06.784Z,70.25
2023-02-15T16:56:08.602Z,70.49
2023-02-15T16:58:17.347Z,69.78
2023-02-15T17:00:21.145Z,70.27
2023-02-15T17:02:49.392Z,69.87
2023-02-15T17:05:06.570Z,70.51
2023-02-15T17:07:18.665Z,70.18
2023-02-15T17:09:23.776Z,70.84
2023-02-15T17:11:35.578Z,70.75
2023-02-15T17:13:37.196Z,70.79
2023-02-15T17:15:41.014Z,70.70
2023-02-15T17:17:42.702Z,71.29
2023-02-15T17:19:50.254Z,71.38
2023-02-15T17:21:54.999Z,71.00
2023-02-15T17:24:01.472Z,70.99
2023-02-15T17:26:14.023Z,71.31
2023-02-15T17:28:19.247Z,71.71
2023-02-15T17:30:29.401Z,71.98
2023-02-15T17:32:32.930Z,72.32
2023-02-15T17:35:01.115Z,71.41
2023-02-15T17:37:02.700Z,72.75
2023-02-15T17:39:19.248Z,73.14
2023-02-15T17:41:21.120Z,73.30
2023-02-15T17:43:22.915Z,73.56
2023-02-15T17:45:29.452Z,73.34
2023-02-15T17:47:31.103Z,74.04
2023-02-15T17:49:33.213Z,73.75
2023-02-15T17:51:36.545Z,74.04
2023-02-15T17:53:38.658Z,73.79
2023-02-15T17:55:41.632Z,73.65
2023-02-15T17:57:43.255Z,74.05
2023-02-15T17:59:44.926Z,74.00
2023-02-15T18:01:48.899Z,74.11
2023-02-15T18:03:52.024Z,74.46
2023-02-15T18:05:54.026Z,74.45
2023-02-15T18:07:55.906Z,74.29
2023-02-15T18:09:57.499Z,74.54
2023-02-15T18:12:01.062Z,74.66
2023-02-15T18:14:02.896Z,74.43
2023-02-15T18:16:04.834Z,75.08
2023-02-15T18:18:09.529Z,74.95
2023-02-15T18:20:20.640Z,74.86
2023-02-15T18:22:22.430Z,75.12
2023-02-15T18:24:26.461Z,74.75
2023-02-15T18:26:28.981Z,75.73
2023-02-15T18:28:32.132Z,75.69
2023-02-15T18:30:34.281Z,75.74
2023-02-15T18:32:38.257Z,75.65
2023-02-15T18:34:42.855Z,75.99
2023-02-15T18:36:45.307Z,76.45
2023-02-15T18:38:47.375Z,76.37
2023-02-15T18:40:48.966Z,76.42
2023-02-15T18:42:50.685Z,76.79
2023-02-15T18:44:56.673Z,77.03
2023-02-15T18:46:58.520Z,76.86
2023-02-15T18:49:00.140Z,77.19
2023-02-15T18:51:02.206Z,77.07
2023-02-15T18:53:06.210Z,76.82
2023-02-15T18:55:17.755Z,76.63
2023-02-15T18:57:19.846Z,76.52
2023-02-15T18:59:22.907Z,76.88
2023-02-15T19:01:26.285Z,77.38
2023-02-15T19:03:27.997Z,76.51
2023-02-15T19:05:30.534Z,76.45
2023-02-15T19:07:34.096Z,76.38
2023-02-15T19:09:35.718Z,76.57
2023-02-15T19:11:37.681Z,76.91
2023-02-15T19:13:39.219Z,77.23
2023-02-15T19:15:41.497Z,76.67
2023-02-15T19:17:44.884Z,76.69
2023-02-15T19:19:47.139Z,76.49
2023-02-15T19:21:50.163Z,76.92
2023-02-15T19:23:55.380Z,77.00
2023-02-15T19:25:57.071Z,77.00
2023-02-15T19:27:59.689Z,77.30
2023-02-15T19:30:03.945Z,77.57
2023-02-15T19:32:05.720Z,77.18
2023-02-15T19:34:14.827Z,76.84
2023-02-15T19:36:18.104Z,77.26
2023-02-15T19:38:23.641Z,77.46
2023-02-15T19:40:27.418Z,77.54
2023-02-15T19:42:29.704Z,77.58
2023-02-15T19:44:31.320Z,77.17
2023-02-15T19:46:33.013Z,77.91
2023-02-15T19:48:34.720Z,77.76
2023-02-15T19:50:37.806Z,77.73
2023-02-15T19:52:40.430Z,77.81
2023-02-15T19:54:44.603Z,77.33
2023-02-15T19:56:47.526Z,77.35
2023-02-15T19:58:50.683Z,78.24
2023-02-15T20:00:52.444Z,78.03
2023-02-15T20:02:55.106Z,78.20
2023-02-15T20:04:57.046Z,78.27
2023-02-15T20:07:02.981Z,78.42
2023-02-15T20:09:05.365Z,78.30
2023-02-15T20:11:09.333Z,78.02
2023-02-15T20:13:14.416Z,78.77
2023-02-15T20:15:21.790Z,77.89
2023-02-15T20:17:23.575Z,78.54
2023-02-15T20:19:25.227Z,78.55
2023-02-15T20:21:26.891Z,78.53
2023-02-15T20:23:33.825Z,78.51
2023-02-15T20:25:35.585Z,78.36
2023-02-15T20:27:37.226Z,78.78
2023-02-15T20:29:39.714Z,78.06
2023-02-15T20:31:42.565Z,78.11
2023-02-15T20:33:44.337Z,78.70
2023-02-15T20:35:47.011Z,78.24
2023-02-15T20:37:50.700Z,78.75
2023-02-15T20:39:53.709Z,78.40
2023-02-15T20:41:55.639Z,78.69
2023-02-15T20:43:57.235Z,78.63
2023-02-15T20:45:59.060Z,78.22
2023-02-15T20:48:00.814Z,78.17
2023-02-15T20:50:02.369Z,78.46
2023-02-15T20:52:14.674Z,78.96
2023-02-15T20:54:18.293Z,78.44
2023-02-15T20:56:24.106Z,78.55
2023-02-15T20:58:27.933Z,78.74
2023-02-15T21:00:32.000Z,78.66
2023-02-15T21:02:33.756Z,78.58
2023-02-15T21:04:35.385Z,78.81
2023-02-15T21:06:37.244Z,78.78
2023-02-15T21:08:38.823Z,78.86
2023-02-15T21:10:41.077Z,78.91
2023-02-15T21:12:45.190Z,79.01
2023-02-15T21:14:47.263Z,78.41
2023-02-15T21:16:50.481Z,78.90
2023-02-15T21:18:52.098Z,78.77
2023-02-15T21:20:57.036Z,78.76
2023-02-15T21:23:02.874Z,78.99
2023-02-15T21:25:05.241Z,78.68
2023-02-15T21:27:07.527Z,78.73
2023-02-15T21:29:15.924Z,78.38
2023-02-15T21:31:19.717Z,78.95
2023-02-15T21:33:21.662Z,79.11
2023-02-15T21:35:23.345Z,78.33
2023-02-15T21:37:32.075Z,78.53
2023-02-15T21:39:36.055Z,78.84
2023-02-15T21:41:37.749Z,78.56
2023-02-15T21:43:39.560Z,78.92
2023-02-15T21:45:42.917Z,79.12
2023-02-15T21:47:44.532Z,79.03
2023-02-15T21:49:46.079Z,78.50
2023-02-15T21:51:47.901Z,78.59
2023-02-15T21:53:49.531Z,78.79
2023-02-15T21:55:52.575Z,78.74
2023-02-15T21:57:54.166Z,79.00
2023-02-15T21:59:55.861Z,78.71
2023-02-15T22:01:59.024Z,78.71
2023-02-15T22:04:00.793Z,79.42
2023-02-15T22:06:02.980Z,79.22
2023-02-15T22:08:11.211Z,79.16
2023-02-15T22:10:13.461Z,79.09
2023-02-15T22:12:16.903Z,79.34
2023-02-15T22:14:35.934Z,78.94
2023-02-15T22:16:37.558Z,79.25
2023-02-15T22:18:40.933Z,78.73
2023-02-15T22:20:42.601Z,78.82
2023-02-15T22:22:44.380Z,79.35
2023-02-15T22:24:46.005Z,78.54
2023-02-15T22:26:47.684Z,79.10
2023-02-15T22:28:49.626Z,79.22
2023-02-15T22:30:52.314Z,78.88
2023-02-15T22:32:55.398Z,78.68
2023-02-15T22:34:58.504Z,78.58
2023-02-15T22:37:00.380Z,78.87
2023-02-15T22:39:02.035Z,78.71
2023-02-15T22:41:04.821Z,78.96
2023-02-15T22:43:13.613Z,79.05
2023-02-15T22:45:18.746Z,79.20
2023-02-15T22:47:22.650Z,78.92
2023-02-15T22:49:24.612Z,79.31
2023-02-15T22:51:29.698Z,79.06
2023-02-15T22:53:31.440Z,79.43
2023-02-15T22:55:37.412Z,79.25
2023-02-15T22:57:39.100Z,78.79
2023-02-15T22:59:40.766Z,79.11
2023-02-15T23:01:42.819Z,78.83
2023-02-15T23:03:44.785Z,79.18
2023-02-15T23:05:46.993Z,78.77
2023-02-15T23:07:50.921Z,78.93
2023-02-15T23:09:52.789Z,78.50
2023-02-15T23:11:54.645Z,79.22
2023-02-15T23:13:56.430Z,79.06
2023-02-15T23:16:01.036Z,78.90
2023-02-15T23:18:16.407Z,79.04
2023-02-15T23:20:18.154Z,78.71
2023-02-15T23:22:19.754Z,78.94
2023-02-15T23:24:24.368Z,78.84
2023-02-15T23:26:28.128Z,79.35
2023-02-15T23:28:31.962Z,78.95
2023-02-15T23:30:34.479Z,78.77
2023-02-15T23:32:36.184Z,78.73
2023-02-15T23:34:38.242Z,79.59
2023-02-15T23:36:39.944Z,78.65
2023-02-15T23:38:41.472Z,79.41
2023-02-15T23:40:48.577Z,79.23
2023-02-15T23:42:50.161Z,78.89
2023-02-15T23:44:51.894Z,78.59
2023-02-15T23:46:53.808Z,78.91
2023-02-15T23:48:56.566Z,79.46
2023-02-15T23:50:59.110Z,78.70
2023-02-15T23:53:00.720Z,78.97
2023-02-15T23:55:02.313Z,79.18
2023-02-15T23:57:05.453Z,79.16
2023-02-15T23:59:07.960Z,79.01
